Time;durP1;ratioP1;P1;durP2;ratioP2;P2;SDS_P1;SDS_P2;PMS_P1;PMS_P2;Temp;Humidity;BMP_temperature;BMP_pressure;BME280_temperature;BME280_humidity;BME280_pressure;Samples;Min_cycle;Max_cycle;Signal;HPM_P1;HPM_P2
2022/08/17 00:01:54;;;;;;;5.78;5.28;;;;;;;;;;5046530;28;20037;-51
2022/08/17 00:04:20;;;;;;;5.05;4.65;;;;;;;;;;5048099;28;20056;-55
2022/08/17 00:06:47;;;;;;;6.03;5.53;;;;;;;;;;5046011;28;20127;-55
2022/08/17 00:09:13;;;;;;;5.60;5.20;;;;;;;;;;5046088;28;20482;-56
2022/08/17 00:11:41;;;;;;;4.97;4.57;;;;;;;;;;5046448;28;20098;-56
2022/08/17 00:14:09;;;;;;;5.53;5.13;;;;;;;;;;5044861;28;20456;-53
2022/08/17 00:16:37;;;;;;;5.50;5.00;;;;;;;;;;5045468;28;20471;-55
2022/08/17 00:19:08;;;;;;;5.25;4.85;;;;;;;;;;5044305;28;20404;-56
2022/08/17 00:21:35;;;;;;;5.35;4.95;;;;;;;;;;5045448;28;20136;-59
2022/08/17 00:24:01;;;;;;;5.00;4.60;;;;;;;;;;5044959;28;20041;-56
2022/08/17 00:26:27;;;;;;;4.70;4.40;;;;;;;;;;5045285;28;20059;-54
2022/08/17 00:28:53;;;;;;;4.68;4.38;;;;;;;;;;5046553;28;20048;-52
2022/08/17 00:31:20;;;;;;;4.30;4.00;;;;;;;;;;5046749;28;20116;-55
2022/08/17 00:33:46;;;;;;;4.37;4.07;;;;;;;;;;5043128;28;20037;-57
2022/08/17 00:36:13;;;;;;;4.40;4.07;;;;;;;;;;5044849;28;20768;-55
2022/08/17 00:38:39;;;;;;;3.58;3.30;;;;;;;;;;5044392;28;20792;-57
2022/08/17 00:41:05;;;;;;;4.07;3.78;;;;;;;;;;5044099;28;20040;-52
2022/08/17 00:43:34;;;;;;;4.72;3.80;;;;;;;;;;5045075;28;20040;-58
2022/08/17 00:46:01;;;;;;;5.05;4.65;;;;;;;;;;5044248;28;19929;-53
2022/08/17 00:48:28;;;;;;;4.15;3.85;;;;;;;;;;5044799;28;20033;-51
2022/08/17 00:51:02;;;;;;;4.57;4.25;;;;;;;;;;5039652;28;20828;-53
2022/08/17 00:53:29;;;;;;;4.15;3.85;;;;;;;;;;5034643;28;20095;-53
2022/08/17 00:55:56;;;;;;;3.70;3.42;;;;;;;;;;5036086;28;20493;-55
2022/08/17 00:58:22;;;;;;;4.07;3.78;;;;;;;;;;5036750;28;20044;-53
2022/08/17 01:00:49;;;;;;;4.60;4.30;;;;;;;;;;5037175;28;20402;-54
2022/08/17 01:03:26;;;;;;;4.15;3.85;;;;;;;;;;5030882;28;20172;-55
2022/08/17 01:05:54;;;;;;;4.35;4.05;;;;;;;;;;5013736;28;20054;-56
2022/08/17 01:08:23;;;;;;;4.43;4.13;;;;;;;;;;5034868;28;20073;-52
2022/08/17 01:10:52;;;;;;;4.50;4.15;;;;;;;;;;5032213;28;20111;-56
2022/08/17 01:13:18;;;;;;;3.92;3.63;;;;;;;;;;5033782;28;20091;-55
2022/08/17 01:15:53;;;;;;;3.80;3.53;;;;;;;;;;5033824;28;20048;-54
2022/08/17 01:18:19;;;;;;;3.42;3.13;;;;;;;;;;5033635;28;20040;-55
2022/08/17 01:20:50;;;;;;;3.60;3.30;;;;;;;;;;5031842;28;19927;-59
2022/08/17 01:23:17;;;;;;;3.45;3.17;;;;;;;;;;5032408;28;20103;-57
2022/08/17 01:25:43;;;;;;;;;;;;;;;;;;5032905;28;20041;-55
2022/08/17 01:28:09;;;;;;;;;;;;;;;;;;5035677;28;19978;-53
2022/08/17 01:30:35;;;;;;;;;;;;;;;;;;5037472;28;19932;-57
2022/08/17 01:33:00;;;;;;;;;;;;;;;;;;5035949;28;19971;-52
2022/08/17 01:35:26;;;;;;;;;;;;;;;;;;5032214;28;20274;-56
2022/08/17 01:37:52;;;;;;;;;;;;;;;;;;5033563;28;19929;-53
2022/08/17 01:40:18;;;;;;;;;;;;;;;;;;5032589;28;19980;-57
2022/08/17 01:42:44;;;;;;;;;;;;;;;;;;5031665;28;20603;-55
2022/08/17 01:45:10;;;;;;;;;;;;;;;;;;5031855;28;20007;-54
2022/08/17 01:47:36;;;;;;;;;;;;;;;;;;5031585;28;20397;-55
2022/08/17 01:50:02;;;;;;;;;;;;;;;;;;5027315;28;20044;-52
2022/08/17 01:52:28;;;;;;;;;;;;;;;;;;5037106;28;20302;-51
2022/08/17 01:54:54;;;;;;;;;;;;;;;;;;5035206;28;19925;-53
2022/08/17 01:57:20;;;;;;;;;;;;;;;;;;5031064;28;19936;-55
2022/08/17 01:59:46;;;;;;;;;;;;;;;;;;5035141;28;20584;-60
2022/08/17 02:02:12;;;;;;;;;;;;;;;;;;5034729;28;19925;-51
2022/08/17 02:04:38;;;;;;;;;;;;;;;;;;5029360;28;19952;-54
2022/08/17 02:07:04;;;;;;;;;;;;;;;;;;5030396;28;19929;-51
2022/08/17 02:09:30;;;;;;;;;;;;;;;;;;5032941;28;20811;-56
2022/08/17 02:11:56;;;;;;;;;;;;;;;;;;5033572;28;20209;-52
2022/08/17 02:14:22;;;;;;;3.03;2.83;;;;;;;;;;5034722;28;20293;-55
2022/08/17 02:16:48;;;;;;;3.90;3.60;;;;;;;;;;5031209;28;20137;-55
2022/08/17 02:19:15;;;;;;;4.07;3.78;;;;;;;;;;5032234;28;20124;-55
2022/08/17 02:21:42;;;;;;;2.97;2.78;;;;;;;;;;5035500;28;20478;-52
2022/08/17 02:24:11;;;;;;;2.60;2.40;;;;;;;;;;5033023;28;20398;-52
2022/08/17 02:26:37;;;;;;;3.42;3.22;;;;;;;;;;5030858;28;20048;-53
2022/08/17 02:29:03;;;;;;;4.28;3.97;;;;;;;;;;5027985;28;20052;-54
2022/08/17 02:31:29;;;;;;;4.25;3.95;;;;;;;;;;5035699;28;20044;-52
2022/08/17 02:33:56;;;;;;;4.88;4.47;;;;;;;;;;5033851;28;20557;-53
2022/08/17 02:36:22;;;;;;;3.95;3.72;;;;;;;;;;5033657;28;20520;-53
2022/08/17 02:38:48;;;;;;;3.80;3.60;;;;;;;;;;5033620;28;20045;-50
2022/08/17 02:41:14;;;;;;;;;;;;;;;;;;5038110;28;20208;-54
2022/08/17 02:43:41;;;;;;;4.10;3.80;;;;;;;;;;5039367;28;19921;-54
2022/08/17 02:46:07;;;;;;;3.83;3.53;;;;;;;;;;5036122;28;20048;-50
2022/08/17 02:48:33;;;;;;;3.78;3.47;;;;;;;;;;5030003;28;20044;-57
2022/08/17 02:51:00;;;;;;;4.10;3.80;;;;;;;;;;5038122;28;20045;-50
2022/08/17 02:53:26;;;;;;;3.38;3.13;;;;;;;;;;5038903;28;20056;-53
2022/08/17 02:55:52;;;;;;;2.83;2.63;;;;;;;;;;5036197;28;20049;-52
2022/08/17 02:58:18;;;;;;;;;;;;;;;;;;5036529;28;20036;-52
2022/08/17 03:00:46;;;;;;;;;;;;;;;;;;5035022;28;20251;-56
2022/08/17 03:03:17;;;;;;;;;;;;;;;;;;5034031;28;19921;-49
2022/08/17 03:05:43;;;;;;;;;;;;;;;;;;5017737;28;19921;-52
2022/08/17 03:08:09;;;;;;;;;;;;;;;;;;5034472;28;20219;-52
2022/08/17 03:10:35;;;;;;;;;;;;;;;;;;5041003;28;20515;-51
2022/08/17 03:13:01;;;;;;;;;;;;;;;;;;5039519;28;20012;-54
2022/08/17 03:15:27;;;;;;;;;;;;;;;;;;5037489;28;20039;-50
2022/08/17 03:17:53;;;;;;;;;;;;;;;;;;5036916;28;19957;-51
2022/08/17 03:20:19;;;;;;;;;;;;;;;;;;5040881;28;19975;-50
2022/08/17 03:22:45;;;;;;;;;;;;;;;;;;5035262;28;19970;-61
2022/08/17 03:25:11;;;;;;;;;;;;;;;;;;5039161;28;19925;-53
2022/08/17 03:27:37;;;;;;;;;;;;;;;;;;5039399;28;20019;-56
2022/08/17 03:30:02;;;;;;;;;;;;;;;;;;5033212;28;19921;-50
2022/08/17 03:32:29;;;;;;;;;;;;;;;;;;5033695;28;19928;-52
2022/08/17 03:34:54;;;;;;;;;;;;;;;;;;5040843;28;19924;-62
2022/08/17 03:37:20;;;;;;;;;;;;;;;;;;5034832;28;20513;-54
2022/08/17 03:39:46;;;;;;;;;;;;;;;;;;5037769;28;19929;-55
2022/08/17 03:42:12;;;;;;;;;;;;;;;;;;5037836;28;19967;-52
2022/08/17 03:44:38;;;;;;;;;;;;;;;;;;5033590;28;20015;-55
2022/08/17 03:58:03;;;;;;;1.65;1.55;;;;;;;;;;5044546;28;20037;-53
2022/08/17 04:00:29;;;;;;;1.17;1.17;;;;;;;;;;5046752;28;20095;-54
2022/08/17 04:02:55;;;;;;;1.00;1.00;;;;;;;;;;5045375;28;20041;-61
2022/08/17 04:05:21;;;;;;;1.27;1.10;;;;;;;;;;5045401;28;20041;-53
2022/08/17 04:07:47;;;;;;;1.13;1.05;;;;;;;;;;5044499;28;20106;-51
2022/08/17 04:10:13;;;;;;;1.67;1.58;;;;;;;;;;5043854;28;20508;-56
2022/08/17 04:12:50;;;;;;;0.80;0.80;;;;;;;;;;5044384;28;20505;-52
2022/08/17 04:15:17;;;;;;;1.05;1.05;;;;;;;;;;5047323;28;20792;-52
2022/08/17 04:17:43;;;;;;;0.90;0.90;;;;;;;;;;5046002;28;20049;-52
2022/08/17 04:20:11;;;;;;;0.63;0.63;;;;;;;;;;5045330;28;20097;-52
2022/08/17 04:22:37;;;;;;;0.90;0.90;;;;;;;;;;5043392;28;20079;-52
2022/08/17 04:25:03;;;;;;;;;;;;;;;;;;5045707;28;20405;-54
2022/08/17 04:27:28;;;;;;;;;;;;;;;;;;5046954;28;19991;-50
2022/08/17 04:29:54;;;;;;;;;;;;;;;;;;5046801;28;20019;-56
2022/08/17 04:32:20;;;;;;;;;;;;;;;;;;5046704;28;19946;-51
2022/08/17 04:34:47;;;;;;;;;;;;;;;;;;5045126;28;19947;-52
2022/08/17 04:37:13;;;;;;;;;;;;;;;;;;5046998;28;20405;-49
2022/08/17 04:42:05;;;;;;;;;;;;;;;;;;5045472;28;19932;-55
2022/08/17 04:42:25;;;;;;;;;;;;;;;;;;5044817;28;20397;-56
2022/08/17 04:44:51;;;;;;;;;;;;;;;;;;5043135;28;19932;-56
2022/08/17 04:47:17;;;;;;;;;;;;;;;;;;5034582;28;19940;-52
2022/08/17 04:49:43;;;;;;;;;;;;;;;;;;5043119;28;20489;-54
2022/08/17 04:52:09;;;;;;;;;;;;;;;;;;5044689;28;20488;-51
2022/08/17 04:54:35;;;;;;;;;;;;;;;;;;5046090;28;20705;-52
2022/08/17 04:57:01;;;;;;;;;;;;;;;;;;5046594;28;20015;-49
2022/08/17 04:59:27;;;;;;;;;;;;;;;;;;5046241;28;20392;-52
2022/08/17 05:01:53;;;;;;;;;;;;;;;;;;5042499;28;19932;-52
2022/08/17 05:04:19;;;;;;;;;;;;;;;;;;5046232;28;19928;-52
2022/08/17 05:06:45;;;;;;;;;;;;;;;;;;5028168;28;19936;-58
2022/08/17 05:09:11;;;;;;;;;;;;;;;;;;5044016;28;19929;-52
2022/08/17 05:11:37;;;;;;;;;;;;;;;;;;5046392;28;20012;-56
2022/08/17 05:14:03;;;;;;;;;;;;;;;;;;5045012;28;19975;-51
2022/08/17 05:16:29;;;;;;;;;;;;;;;;;;5041031;28;20329;-55
2022/08/17 05:18:55;;;;;;;;;;;;;;;;;;5044394;28;19975;-60
2022/08/17 05:21:21;;;;;;;;;;;;;;;;;;5044193;28;19972;-53
2022/08/17 05:23:47;;;;;;;;;;;;;;;;;;5037651;28;19928;-53
2022/08/17 05:26:13;;;;;;;;;;;;;;;;;;5043322;28;19932;-52
2022/08/17 05:28:39;;;;;;;;;;;;;;;;;;5042757;28;19924;-58
2022/08/17 05:31:05;;;;;;;;;;;;;;;;;;5042241;28;19929;-54
2022/08/17 05:33:30;;;;;;;;;;;;;;;;;;5045635;28;19924;-50
2022/08/17 05:35:57;;;;;;;;;;;;;;;;;;5041739;28;19929;-52
2022/08/17 05:38:23;;;;;;;;;;;;;;;;;;5032573;28;19936;-52
2022/08/17 05:40:49;;;;;;;;;;;;;;;;;;5038551;28;20031;-53
2022/08/17 05:43:14;;;;;;;;;;;;;;;;;;5041631;28;20044;-53
2022/08/17 05:45:40;;;;;;;;;;;;;;;;;;5043743;28;19928;-57
2022/08/17 05:48:06;;;;;;;;;;;;;;;;;;5044260;28;20010;-52
2022/08/17 05:50:32;;;;;;;;;;;;;;;;;;5044618;28;19924;-55
2022/08/17 05:52:58;;;;;;;;;;;;;;;;;;5045107;28;19932;-53
2022/08/17 05:55:24;;;;;;;;;;;;;;;;;;5046139;28;20011;-55
2022/08/17 05:57:50;;;;;;;;;;;;;;;;;;5044164;28;19933;-54
2022/08/17 06:00:16;;;;;;;;;;;;;;;;;;5045182;28;20442;-52
2022/08/17 06:02:42;;;;;;;;;;;;;;;;;;5045207;28;19960;-52
2022/08/17 06:05:08;;;;;;;;;;;;;;;;;;5044558;28;20020;-53
2022/08/17 06:07:33;;;;;;;;;;;;;;;;;;5045314;28;20388;-54
2022/08/17 06:09:59;;;;;;;;;;;;;;;;;;5044648;28;19928;-52
2022/08/17 06:12:25;;;;;;;;;;;;;;;;;;5045080;28;19925;-54
2022/08/17 06:14:51;;;;;;;;;;;;;;;;;;5043216;28;20360;-52
2022/08/17 06:17:17;;;;;;;;;;;;;;;;;;5042158;28;19920;-52
2022/08/17 06:19:43;;;;;;;;;;;;;;;;;;5045368;28;19970;-53
2022/08/17 06:22:09;;;;;;;;;;;;;;;;;;5045619;28;20332;-50
2022/08/17 06:24:35;;;;;;;;;;;;;;;;;;5045657;28;20319;-54
2022/08/17 06:27:01;;;;;;;;;;;;;;;;;;5044343;28;20404;-57
2022/08/17 06:29:27;;;;;;;;;;;;;;;;;;5045798;28;19925;-51
2022/08/17 06:31:53;;;;;;;;;;;;;;;;;;5045389;28;20015;-49
2022/08/17 06:34:19;;;;;;;;;;;;;;;;;;5044342;28;19927;-49
2022/08/17 06:36:46;;;;;;;;;;;;;;;;;;5035735;28;19924;-56
2022/08/17 06:39:12;;;;;;;;;;;;;;;;;;5045654;28;20007;-48
2022/08/17 06:41:38;;;;;;;;;;;;;;;;;;5046385;28;20059;-58
2022/08/17 06:44:04;;;;;;;;;;;;;;;;;;5046403;28;20015;-58
2022/08/17 06:46:30;;;;;;;;;;;;;;;;;;5045588;28;20439;-59
2022/08/17 06:49:16;;;;;;;1.30;1.10;;;;;;;;;;5045691;28;19986;-56
2022/08/17 06:51:49;;;;;;;2.55;2.35;;;;;;;;;;5045401;28;20061;-54
2022/08/17 06:54:20;;;;;;;5.13;3.75;;;;;;;;;;5045664;28;20132;-55
2022/08/17 06:57:04;;;;;;;4.70;4.30;;;;;;;;;;5045587;28;20037;-63
2022/08/17 06:59:33;;;;;;;4.13;3.75;;;;;;;;;;5045585;28;20501;-57
2022/08/17 07:02:04;;;;;;;3.75;3.45;;;;;;;;;;5044704;28;20160;-51
2022/08/17 07:04:33;;;;;;;4.13;3.75;;;;;;;;;;5045454;28;20102;-65
2022/08/17 07:08:00;;;;;;;6.10;5.60;;;;;;;;;;5045012;28;20444;-56
2022/08/17 07:09:51;;;;;;;5.50;5.10;;;;;;;;;;5045137;28;20049;-67
2022/08/17 07:12:24;;;;;;;5.63;5.17;;;;;;;;;;5045835;28;20072;-53
2022/08/17 07:14:53;;;;;;;6.22;5.75;;;;;;;;;;5044884;28;20103;-64
2022/08/17 07:17:20;;;;;;;4.07;3.67;;;;;;;;;;5045559;28;20404;-58
2022/08/17 07:19:48;;;;;;;3.25;3.05;;;;;;;;;;5045536;28;20084;-58
2022/08/17 07:22:14;;;;;;;;;;;;;;;;;;5044894;28;19925;-57
2022/08/17 07:24:42;;;;;;;;;;;;;;;;;;5045774;28;19935;-54
2022/08/17 07:27:13;;;;;;;3.33;1.98;;;;;;;;;;5037044;28;20044;-60
2022/08/17 07:29:41;;;;;;;2.10;2.00;;;;;;;;;;5042120;28;20044;-53
2022/08/17 07:32:08;;;;;;;2.95;2.75;;;;;;;;;;5037283;28;20045;-53
2022/08/17 07:34:34;;;;;;;;;;;;;;;;;;5029239;28;20086;-55
2022/08/17 07:37:00;;;;;;;;;;;;;;;;;;5030138;28;19971;-57
2022/08/17 07:39:26;;;;;;;;;;;;;;;;;;5048889;28;20456;-53
2022/08/17 07:42:00;;;;;;;2.95;2.67;;;;;;;;;;5048787;28;19925;-57
2022/08/17 07:44:27;;;;;;;2.38;2.17;;;;;;;;;;5029668;28;20063;-56
2022/08/17 07:49:39;;;;;;;2.25;2.15;;;;;;;;;;5047695;28;20050;-55
2022/08/17 07:52:10;;;;;;;2.38;2.17;;;;;;;;;;5047825;28;20061;-55
2022/08/17 07:54:38;;;;;;;3.07;2.87;;;;;;;;;;5046384;28;20563;-56
2022/08/17 07:57:13;;;;;;;2.50;2.22;;;;;;;;;;5033237;28;20235;-56
2022/08/17 07:59:40;;;;;;;2.13;2.03;;;;;;;;;;5046803;28;20057;-56
2022/08/17 08:02:26;;;;;;;3.92;3.40;;;;;;;;;;5047891;28;20636;-52
2022/08/17 08:05:01;;;;;;;3.00;2.80;;;;;;;;;;5046198;28;20053;-60
2022/08/17 08:07:33;;;;;;;5.88;5.47;;;;;;;;;;5042346;28;20098;-55
2022/08/17 08:10:02;;;;;;;5.38;4.97;;;;;;;;;;5029536;28;20174;-55
2022/08/17 08:12:39;;;;;;;5.63;5.13;;;;;;;;;;5047476;28;20092;-58
2022/08/17 08:15:24;;;;;;;5.72;5.22;;;;;;;;;;5048012;28;20361;-60
2022/08/17 08:17:50;;;;;;;4.45;4.15;;;;;;;;;;5047124;28;20053;-55
2022/08/17 08:20:17;;;;;;;5.57;5.18;;;;;;;;;;5048406;28;20059;-58
2022/08/17 08:23:02;;;;;;;5.32;4.93;;;;;;;;;;5047931;28;20041;-50
2022/08/17 08:25:28;;;;;;;4.60;4.20;;;;;;;;;;5047414;28;20049;-54
2022/08/17 08:28:01;;;;;;;4.47;4.18;;;;;;;;;;5047529;28;20055;-59
2022/08/17 08:30:30;;;;;;;5.95;5.55;;;;;;;;;;5047827;28;20133;-56
2022/08/17 08:33:06;;;;;;;3.53;3.28;;;;;;;;;;5046673;28;20052;-53
2022/08/17 08:35:36;;;;;;;3.43;3.13;;;;;;;;;;5047690;28;20045;-55
2022/08/17 08:38:07;;;;;;;3.90;3.67;;;;;;;;;;5047543;28;20238;-54
2022/08/17 08:40:43;;;;;;;2.85;2.70;;;;;;;;;;5045782;28;20036;-55
2022/08/17 08:43:27;;;;;;;3.35;3.15;;;;;;;;;;5047475;28;20045;-57
2022/08/17 08:46:23;;;;;;;2.65;2.55;;;;;;;;;;5046565;28;20167;-59
2022/08/17 08:49:08;;;;;;;2.60;2.42;;;;;;;;;;5047505;28;20056;-54
2022/08/17 08:51:46;;;;;;;4.22;3.92;;;;;;;;;;5047108;28;20076;-56
2022/08/17 08:54:12;;;;;;;7.80;6.65;;;;;;;;;;5046481;28;20100;-53
2022/08/17 08:56:47;;;;;;;7.40;6.80;;;;;;;;;;5047127;28;20189;-55
2022/08/17 08:59:32;;;;;;;6.85;6.35;;;;;;;;;;5047239;28;20612;-51
2022/08/17 09:02:16;;;;;;;8.85;8.05;;;;;;;;;;5045483;28;20041;-55
2022/08/17 09:04:54;;;;;;;5.78;5.38;;;;;;;;;;5038248;28;20090;-57
2022/08/17 09:07:36;;;;;;;3.80;3.53;;;;;;;;;;5046367;28;20072;-63
2022/08/17 09:10:14;;;;;;;3.50;3.30;;;;;;;;;;5046458;28;20072;-53
2022/08/17 09:12:40;;;;;;;3.20;3.00;;;;;;;;;;5045421;28;20055;-58
2022/08/17 09:15:12;;;;;;;2.50;2.40;;;;;;;;;;5045926;28;20420;-50
2022/08/17 09:17:38;;;;;;;;;;;;;;;;;;5041609;28;20046;-59
2022/08/17 09:20:31;;;;;;;2.00;1.90;;;;;;;;;;5039135;28;19943;-50
2022/08/17 09:23:07;;;;;;;1.92;1.83;;;;;;;;;;5040792;28;20065;-55
2022/08/17 09:25:39;;;;;;;2.00;1.90;;;;;;;;;;5046265;28;20099;-52
2022/08/17 09:28:06;;;;;;;2.53;2.40;;;;;;;;;;5044961;28;20048;-53
2022/08/17 09:30:52;;;;;;;9.65;8.77;;;;;;;;;;5046015;28;20045;-53
2022/08/17 09:33:26;;;;;;;9.65;8.75;;;;;;;;;;5045775;28;20049;-54
2022/08/17 09:35:55;;;;;;;14.77;13.40;;;;;;;;;;5045109;28;20102;-53
2022/08/17 09:38:21;;;;;;;17.80;16.02;;;;;;;;;;5046182;28;20049;-55
2022/08/17 09:41:03;;;;;;;15.23;13.93;;;;;;;;;;5045693;28;20056;-54
2022/08/17 09:43:41;;;;;;;15.38;13.88;;;;;;;;;;5045042;28;20041;-53
2022/08/17 09:46:16;;;;;;;8.98;8.27;;;;;;;;;;5039740;28;20052;-53
2022/08/17 09:49:06;;;;;;;16.02;14.50;;;;;;;;;;5045543;28;20041;-55
2022/08/17 09:51:32;;;;;;;11.82;10.73;;;;;;;;;;5045464;28;20416;-55
2022/08/17 09:53:58;;;;;;;7.25;6.65;;;;;;;;;;5044627;28;20135;-49
2022/08/17 09:56:30;;;;;;;7.60;6.90;;;;;;;;;;5044891;28;20128;-52
2022/08/17 09:59:15;;;;;;;11.30;10.30;;;;;;;;;;5045174;28;20052;-59
2022/08/17 10:01:41;;;;;;;10.57;9.60;;;;;;;;;;5045343;28;20525;-52
2022/08/17 10:04:26;;;;;;;7.95;7.35;;;;;;;;;;5044233;28;20041;-54
2022/08/17 10:06:57;;;;;;;8.13;7.43;;;;;;;;;;5045026;28;20128;-56
2022/08/17 10:09:26;;;;;;;10.48;9.57;;;;;;;;;;5046290;28;20618;-52
2022/08/17 10:12:19;;;;;;;12.68;11.57;;;;;;;;;;5044971;28;20053;-49
2022/08/17 10:15:03;;;;;;;6.43;5.93;;;;;;;;;;5045040;28;20084;-64
2022/08/17 10:17:36;;;;;;;6.38;5.80;;;;;;;;;;5044880;28;20087;-55
2022/08/17 10:20:09;;;;;;;5.35;4.95;;;;;;;;;;5044731;28;20057;-55
2022/08/17 10:28:19;;;;;;;5.63;5.22;;;;;;;;;;5038625;28;20056;-55
2022/08/17 10:30:47;;;;;;;5.53;5.13;;;;;;;;;;5045267;28;20072;-62
2022/08/17 10:33:26;;;;;;;7.60;6.95;;;;;;;;;;5041115;28;20091;-56
2022/08/17 10:35:52;;;;;;;7.70;7.10;;;;;;;;;;5043449;28;20053;-54
2022/08/17 10:38:37;;;;;;;18.48;14.88;;;;;;;;;;5043024;28;20047;-58
2022/08/17 10:41:06;;;;;;;8.48;7.70;;;;;;;;;;5043351;28;20049;-55
2022/08/17 10:43:57;;;;;;;10.82;9.93;;;;;;;;;;5044354;28;20033;-53
2022/08/17 10:46:29;;;;;;;7.85;7.22;;;;;;;;;;5043140;28;20072;-53
2022/08/17 10:48:55;;;;;;;;;;;;;;;;;;5043166;28;20426;-58
2022/08/17 10:51:32;;;;;;;8.88;8.10;;;;;;;;;;5043430;28;19975;-58
2022/08/17 10:54:01;;;;;;;10.23;9.15;;;;;;;;;;5034969;28;20127;-56
2022/08/17 10:56:41;;;;;;;6.57;6.07;;;;;;;;;;5025688;28;20045;-55
2022/08/17 10:59:07;;;;;;;8.80;7.78;;;;;;;;;;5036368;28;20397;-53
2022/08/17 11:01:34;;;;;;;8.52;7.82;;;;;;;;;;5040298;28;20037;-56
2022/08/17 11:04:00;;;;;;;10.30;9.27;;;;;;;;;;5048534;28;20054;-50
2022/08/17 11:06:40;;;;;;;11.85;10.68;;;;;;;;;;5049419;28;20064;-68
2022/08/17 11:09:10;;;;;;;9.93;8.10;;;;;;;;;;5049778;28;20111;-53
2022/08/17 11:11:55;;;;;;;6.25;5.70;;;;;;;;;;5049948;28;20048;-59
2022/08/17 11:14:26;;;;;;;9.05;8.25;;;;;;;;;;5046927;28;20128;-56
2022/08/17 11:17:11;;;;;;;11.02;9.23;;;;;;;;;;5038918;28;20423;-53
2022/08/17 11:19:43;;;;;;;10.75;9.75;;;;;;;;;;5039090;28;20110;-62
2022/08/17 11:22:09;;;;;;;;;;;;;;;;;;5037450;28;20065;-51
2022/08/17 11:24:37;;;;;;;10.40;9.43;;;;;;;;;;5039432;28;19944;-60
2022/08/17 11:27:03;;;;;;;17.02;8.27;;;;;;;;;;5048924;28;20053;-54
2022/08/17 11:29:37;;;;;;;9.60;8.80;;;;;;;;;;5048869;28;20110;-54
2022/08/17 11:32:12;;;;;;;10.45;9.55;;;;;;;;;;5049207;28;20055;-53
2022/08/17 11:34:39;;;;;;;14.13;12.25;;;;;;;;;;5049399;28;20103;-54
2022/08/17 11:37:17;;;;;;;12.70;11.32;;;;;;;;;;5069080;28;20049;-53
2022/08/17 11:40:05;;;;;;;9.82;8.70;;;;;;;;;;5054785;28;20143;-59
2022/08/17 11:42:31;;;;;;;9.07;8.20;;;;;;;;;;5034865;28;20044;-58
2022/08/17 11:44:58;;;;;;;8.93;8.00;;;;;;;;;;5034508;28;20406;-53
2022/08/17 11:53:02;;;;;;;11.27;10.27;;;;;;;;;;5028526;28;20049;-52
2022/08/17 11:55:31;;;;;;;7.40;6.70;;;;;;;;;;5029223;28;20037;-59
2022/08/17 11:58:36;;;;;;;7.15;6.60;;;;;;;;;;5010792;28;20060;-53
2022/08/17 12:01:11;;;;;;;6.70;6.10;;;;;;;;;;4965730;28;20058;-57
2022/08/17 12:03:37;;;;;;;7.43;6.55;;;;;;;;;;5020626;28;20506;-60
2022/08/17 12:06:16;;;;;;;8.10;7.28;;;;;;;;;;5028891;28;20052;-52
2022/08/17 12:08:44;;;;;;;11.23;10.23;;;;;;;;;;5028954;28;20056;-54
2022/08/17 12:11:12;;;;;;;7.97;7.38;;;;;;;;;;5010303;28;20063;-53
2022/08/17 12:13:44;;;;;;;5.05;4.55;;;;;;;;;;5028745;28;20494;-60
2022/08/17 12:16:14;;;;;;;10.63;9.80;;;;;;;;;;5028643;28;20837;-59
2022/08/17 12:18:47;;;;;;;7.13;6.63;;;;;;;;;;5028235;28;20056;-58
2022/08/17 12:21:19;;;;;;;10.93;9.90;;;;;;;;;;5028811;28;20136;-54
2022/08/17 12:24:05;;;;;;;10.45;9.38;;;;;;;;;;5027829;28;20602;-62
2022/08/17 12:26:32;;;;;;;10.10;9.10;;;;;;;;;;5028604;28;20065;-53
2022/08/17 12:29:13;;;;;;;10.07;9.18;;;;;;;;;;5028466;28;20502;-56
2022/08/17 12:31:45;;;;;;;10.50;9.27;;;;;;;;;;5027840;28;20037;-58
2022/08/17 12:34:17;;;;;;;10.25;9.27;;;;;;;;;;5028676;28;20049;-53
2022/08/17 12:36:44;;;;;;;13.13;10.25;;;;;;;;;;5028490;28;20045;-55
2022/08/17 12:39:11;;;;;;;8.73;7.90;;;;;;;;;;5028090;28;20248;-59
2022/08/17 12:41:37;;;;;;;9.27;7.53;;;;;;;;;;5028584;28;20060;-53
2022/08/17 12:44:05;;;;;;;9.45;7.88;;;;;;;;;;5028033;28;20049;-55
2022/08/17 12:46:34;;;;;;;9.52;8.35;;;;;;;;;;5027351;28;20081;-53
2022/08/17 12:49:10;;;;;;;8.80;7.90;;;;;;;;;;5027822;28;20045;-58
2022/08/17 12:51:41;;;;;;;8.95;8.05;;;;;;;;;;5028016;28;20057;-58
2022/08/17 12:54:17;;;;;;;7.13;6.53;;;;;;;;;;5027368;28;20054;-57
2022/08/17 12:56:44;;;;;;;5.95;5.45;;;;;;;;;;5028347;28;20116;-56
2022/08/17 12:59:10;;;;;;;4.30;4.03;;;;;;;;;;5027127;28;20071;-53
2022/08/17 13:01:40;;;;;;;7.72;7.03;;;;;;;;;;5027905;28;20059;-54
2022/08/17 13:04:06;;;;;;;6.63;5.97;;;;;;;;;;5022175;28;20493;-53
2022/08/17 13:06:34;;;;;;;7.38;6.60;;;;;;;;;;5025624;28;20108;-53
2022/08/17 13:09:10;;;;;;;9.32;7.35;;;;;;;;;;5024890;28;20107;-55
2022/08/17 13:11:45;;;;;;;7.18;6.15;;;;;;;;;;5026634;28;20438;-55
2022/08/17 13:14:11;;;;;;;8.68;6.38;;;;;;;;;;5025859;28;20391;-51
2022/08/17 13:16:37;;;;;;;5.55;5.15;;;;;;;;;;5026452;28;20053;-55
2022/08/17 13:19:06;;;;;;;6.50;5.85;;;;;;;;;;5008357;28;20053;-55
2022/08/17 13:21:33;;;;;;;8.60;6.90;;;;;;;;;;5024686;28;20073;-54
2022/08/17 13:23:59;;;;;;;7.38;6.75;;;;;;;;;;5024846;28;20038;-56
2022/08/17 13:26:28;;;;;;;5.40;4.88;;;;;;;;;;5025066;28;20053;-54
2022/08/17 13:28:54;;;;;;;5.90;5.40;;;;;;;;;;5024643;28;20045;-59
2022/08/17 13:31:26;;;;;;;8.35;5.90;;;;;;;;;;5026112;28;20080;-56
2022/08/17 13:34:31;;;;;;;6.20;5.60;;;;;;;;;;5025744;28;20046;-54
2022/08/17 13:37:17;;;;;;;5.28;4.80;;;;;;;;;;4925955;29;20784;-55
2022/08/17 13:39:44;;;;;;;4.63;4.20;;;;;;;;;;4926351;29;20050;-53
2022/08/17 13:42:29;;;;;;;5.65;5.15;;;;;;;;;;4986520;28;20347;-54
2022/08/17 13:44:56;;;;;;;6.03;5.30;;;;;;;;;;5025579;28;20045;-56
2022/08/17 13:47:23;;;;;;;6.13;5.55;;;;;;;;;;5026180;28;20491;-55
2022/08/17 13:49:50;;;;;;;6.78;6.10;;;;;;;;;;5025468;28;20049;-54
2022/08/17 13:52:38;;;;;;;6.10;5.60;;;;;;;;;;5040222;28;20045;-55
2022/08/17 13:55:15;;;;;;;5.00;4.50;;;;;;;;;;5045046;28;20053;-58
2022/08/17 13:57:44;;;;;;;5.07;4.68;;;;;;;;;;5045588;28;20045;-58
2022/08/17 14:00:16;;;;;;;5.00;4.60;;;;;;;;;;5045404;28;20057;-51
2022/08/17 14:02:42;;;;;;;;;;;;;;;;;;5045655;28;20051;-59
2022/08/17 14:05:08;;;;;;;7.20;6.53;;;;;;;;;;5027450;28;19920;-53
2022/08/17 14:07:35;;;;;;;7.05;6.35;;;;;;;;;;5045471;28;20072;-54
2022/08/17 14:10:13;;;;;;;6.55;5.55;;;;;;;;;;5044649;28;20045;-54
2022/08/17 14:12:40;;;;;;;6.90;4.65;;;;;;;;;;5045820;28;20041;-53
2022/08/17 14:15:07;;;;;;;5.25;4.80;;;;;;;;;;5045383;28;20052;-52
2022/08/17 14:17:33;;;;;;;4.43;4.03;;;;;;;;;;5045101;28;20052;-53
2022/08/17 14:19:59;;;;;;;4.30;3.90;;;;;;;;;;5044995;28;20049;-56
2022/08/17 14:22:30;;;;;;;6.18;5.68;;;;;;;;;;5045491;28;20114;-54
2022/08/17 14:24:56;;;;;;;6.80;5.72;;;;;;;;;;5044461;28;20155;-53
2022/08/17 14:27:25;;;;;;;6.03;5.43;;;;;;;;;;5045410;28;20048;-54
2022/08/17 14:29:52;;;;;;;6.50;5.90;;;;;;;;;;5045286;28;20501;-59
2022/08/17 14:32:40;;;;;;;6.75;6.10;;;;;;;;;;5045027;28;20623;-52
2022/08/17 14:35:07;;;;;;;4.63;4.22;;;;;;;;;;5045476;28;20045;-55
2022/08/17 14:37:33;;;;;;;7.28;5.95;;;;;;;;;;5027177;28;20048;-52
2022/08/17 14:40:02;;;;;;;5.65;4.95;;;;;;;;;;5049308;28;20513;-55
2022/08/17 14:42:30;;;;;;;5.20;4.80;;;;;;;;;;5049383;28;20052;-52
2022/08/17 14:45:01;;;;;;;4.75;4.35;;;;;;;;;;5048455;28;20053;-54
2022/08/17 14:47:27;;;;;;;5.25;4.85;;;;;;;;;;5049359;28;20065;-55
2022/08/17 14:49:53;;;;;;;6.70;5.22;;;;;;;;;;5049184;28;20052;-53
2022/08/17 14:52:20;;;;;;;6.05;5.43;;;;;;;;;;5048657;28;20406;-55
2022/08/17 14:54:50;;;;;;;5.43;4.93;;;;;;;;;;5049088;28;20041;-52
2022/08/17 14:57:20;;;;;;;4.97;4.57;;;;;;;;;;5049540;28;20048;-52
2022/08/17 14:59:46;;;;;;;4.45;4.05;;;;;;;;;;5048531;28;20052;-58
2022/08/17 15:02:12;;;;;;;4.95;4.35;;;;;;;;;;5049046;28;20053;-56
2022/08/17 15:04:38;;;;;;;3.70;3.50;;;;;;;;;;5049046;28;20156;-52
2022/08/17 15:07:05;;;;;;;4.90;4.40;;;;;;;;;;5048012;28;20041;-56
2022/08/17 15:09:31;;;;;;;4.82;4.13;;;;;;;;;;5049142;28;20098;-56
2022/08/17 15:11:59;;;;;;;3.75;3.45;;;;;;;;;;5048843;28;20102;-53
2022/08/17 15:14:25;;;;;;;3.75;3.45;;;;;;;;;;5048591;28;20041;-54
2022/08/17 15:16:51;;;;;;;3.53;3.22;;;;;;;;;;5048658;28;20105;-57
2022/08/17 15:19:17;;;;;;;4.00;3.45;;;;;;;;;;5048873;28;20236;-58
2022/08/17 15:21:45;;;;;;;3.20;3.00;;;;;;;;;;5046301;28;19921;-57
2022/08/17 15:24:12;;;;;;;2.35;2.25;;;;;;;;;;5048810;28;20049;-55
2022/08/17 15:26:38;;;;;;;2.95;2.75;;;;;;;;;;5044589;28;20138;-54
2022/08/17 15:29:04;;;;;;;3.08;2.83;;;;;;;;;;5030947;28;20056;-53
2022/08/17 15:31:30;;;;;;;;;;;;;;;;;;5029172;28;19936;-53
2022/08/17 15:33:56;;;;;;;;;;;;;;;;;;5029571;28;20302;-56
2022/08/17 15:36:22;;;;;;;;;;;;;;;;;;5032037;28;19946;-53
2022/08/17 15:38:48;;;;;;;;;;;;;;;;;;5029212;28;20024;-53
2022/08/17 15:41:16;;;;;;;3.13;2.93;;;;;;;;;;5028576;28;19970;-54
2022/08/17 15:43:43;;;;;;;2.92;2.72;;;;;;;;;;5029298;28;20049;-54
2022/08/17 15:46:13;;;;;;;2.20;2.10;;;;;;;;;;5036675;28;20040;-53
2022/08/17 15:48:40;;;;;;;2.00;1.90;;;;;;;;;;5046619;28;20093;-54
2022/08/17 15:51:17;;;;;;;1.85;1.75;;;;;;;;;;5047018;28;20490;-55
2022/08/17 15:53:44;;;;;;;1.90;1.75;;;;;;;;;;5048372;28;20061;-52
2022/08/17 15:56:13;;;;;;;2.08;1.88;;;;;;;;;;5048507;28;20114;-52